createdAt,value
2018-03-28T00:00:25.027Z,94.40
2018-03-28T00:02:53.338Z,94.00
2018-03-28T00:05:21.818Z,94.00
2018-03-28T00:07:49.354Z,93.60
2018-03-28T00:10:17.912Z,93.40
2018-03-28T00:12:45.434Z,94.20
2018-03-28T00:15:12.994Z,94.40
2018-03-28T00:17:41.476Z,94.90
2018-03-28T00:20:09.035Z,94.70
2018-03-28T00:22:36.563Z,94.80
2018-03-28T00:25:04.140Z,95.20
2018-03-28T00:27:31.666Z,94.40
2018-03-28T00:29:59.942Z,95.00
2018-03-28T00:32:27.500Z,95.00
2018-03-28T00:34:55.044Z,95.40
2018-03-28T00:37:23.369Z,95.10
2018-03-28T00:39:51.947Z,95.10
2018-03-28T00:42:19.533Z,94.90
2018-03-28T00:44:47.062Z,94.70
2018-03-28T00:47:14.576Z,95.10
2018-03-28T00:49:42.126Z,94.30
2018-03-28T00:52:09.651Z,94.50
2018-03-28T00:54:37.210Z,94.70
2018-03-28T00:57:04.734Z,93.90
2018-03-28T00:59:32.279Z,93.60
2018-03-28T01:02:00.574Z,93.60
2018-03-28T01:04:28.118Z,93.50
2018-03-28T01:06:55.646Z,94.30
2018-03-28T01:09:23.194Z,94.20
2018-03-28T01:11:50.714Z,93.90
2018-03-28T01:14:18.231Z,93.70
2018-03-28T01:16:45.801Z,93.20
2018-03-28T01:19:13.466Z,92.90
2018-03-28T01:21:41.802Z,92.70
2018-03-28T01:24:09.318Z,93.00
2018-03-28T01:26:39.534Z,92.40
2018-03-28T01:29:07.829Z,92.40
2018-03-28T01:31:35.382Z,92.30
2018-03-28T01:34:02.926Z,92.80
2018-03-28T01:36:30.454Z,91.50
2018-03-28T01:38:59.515Z,91.30
2018-03-28T01:41:27.044Z,91.30
2018-03-28T01:43:54.611Z,91.40
2018-03-28T01:46:22.129Z,90.50
2018-03-28T01:48:49.682Z,91.10
2018-03-28T01:51:17.210Z,91.10
2018-03-28T01:53:44.758Z,91.00
2018-03-28T01:56:12.283Z,90.60
2018-03-28T01:58:39.802Z,90.60
2018-03-28T02:01:07.345Z,90.10
2018-03-28T02:03:34.870Z,89.50
2018-03-28T02:06:02.440Z,90.70
2018-03-28T02:08:29.961Z,90.80
2018-03-28T02:10:57.512Z,90.60
2018-03-28T02:13:25.034Z,90.20
2018-03-28T02:15:52.590Z,90.10
2018-03-28T02:18:20.135Z,90.50
2018-03-28T02:20:47.666Z,90.00
2018-03-28T02:23:15.219Z,90.30
2018-03-28T02:25:42.740Z,90.60
2018-03-28T02:28:12.227Z,90.40
2018-03-28T02:30:40.739Z,88.20
2018-03-28T02:33:08.283Z,89.70
2018-03-28T02:35:36.744Z,89.10
2018-03-28T02:38:04.304Z,89.80
2018-03-28T02:40:31.831Z,90.20
2018-03-28T02:42:59.367Z,89.20
2018-03-28T02:45:27.871Z,89.40
2018-03-28T02:47:55.397Z,88.00
2018-03-28T02:50:22.972Z,86.60
2018-03-28T02:52:51.269Z,86.90
2018-03-28T02:55:19.647Z,86.10
2018-03-28T02:57:47.943Z,86.60
2018-03-28T03:00:15.498Z,86.50
2018-03-28T03:02:43.073Z,87.80
2018-03-28T03:05:10.572Z,87.60
2018-03-28T03:07:38.127Z,84.80
2018-03-28T03:10:07.170Z,85.10
2018-03-28T03:12:34.727Z,84.90
2018-03-28T03:15:02.261Z,85.80
2018-03-28T03:17:31.800Z,84.00
2018-03-28T03:19:59.356Z,84.90
2018-03-28T03:22:26.909Z,84.70
2018-03-28T03:24:54.428Z,85.30
2018-03-28T03:27:21.958Z,83.70
2018-03-28T03:29:49.516Z,84.30
2018-03-28T03:32:17.997Z,83.20
2018-03-28T03:34:47.524Z,83.40
2018-03-28T03:37:15.051Z,83.40
2018-03-28T03:39:42.593Z,84.40
2018-03-28T03:42:10.110Z,83.10
2018-03-28T03:44:37.683Z,83.60
2018-03-28T03:47:05.976Z,84.90
2018-03-28T03:49:33.497Z,84.80
2018-03-28T03:52:01.044Z,84.00
2018-03-28T03:54:28.568Z,84.70
2018-03-28T03:56:56.229Z,86.60
2018-03-28T03:59:23.755Z,86.70
2018-03-28T04:01:51.313Z,87.00
2018-03-28T04:04:19.613Z,88.50
2018-03-28T04:06:47.138Z,88.50
2018-03-28T04:09:14.692Z,88.20
2018-03-28T04:11:42.218Z,86.70
2018-03-28T04:14:09.770Z,87.20
2018-03-28T04:16:37.303Z,87.50
2018-03-28T04:19:05.146Z,87.60
2018-03-28T04:21:33.626Z,86.30
2018-03-28T04:24:01.168Z,86.00
2018-03-28T04:26:28.734Z,85.80
2018-03-28T04:28:56.262Z,87.50
2018-03-28T04:31:23.808Z,85.70
2018-03-28T04:33:51.330Z,85.00
2018-03-28T04:36:19.660Z,85.40
2018-03-28T04:38:47.182Z,85.40
2018-03-28T04:41:14.702Z,84.10
2018-03-28T04:43:42.312Z,81.40
2018-03-28T04:46:09.819Z,81.00
2018-03-28T04:48:37.362Z,81.70
2018-03-28T04:51:04.906Z,81.00
2018-03-28T04:53:32.482Z,80.40
2018-03-28T04:56:00.004Z,80.60
2018-03-28T04:58:27.524Z,79.20
2018-03-28T05:00:55.086Z,79.80
2018-03-28T05:03:22.614Z,80.00
2018-03-28T05:05:50.170Z,79.20
2018-03-28T05:08:17.730Z,79.40
2018-03-28T05:10:45.254Z,79.90
2018-03-28T05:13:14.749Z,78.80
2018-03-28T05:15:43.252Z,78.50
2018-03-28T05:18:10.802Z,78.90
2018-03-28T05:20:39.086Z,79.10
2018-03-28T05:23:06.599Z,79.60
2018-03-28T05:25:34.930Z,79.00
2018-03-28T05:28:02.453Z,79.00
2018-03-28T05:30:29.994Z,79.40
2018-03-28T05:32:58.270Z,78.80
2018-03-28T05:35:25.804Z,78.80
2018-03-28T05:37:53.362Z,79.00
2018-03-28T05:40:20.895Z,79.60
2018-03-28T05:42:48.454Z,79.50
2018-03-28T05:45:15.996Z,79.20
2018-03-28T05:47:43.510Z,80.50
2018-03-28T05:50:13.025Z,79.20
2018-03-28T05:52:40.554Z,79.30
2018-03-28T05:55:08.134Z,79.30
2018-03-28T05:57:36.423Z,80.80
2018-03-28T06:00:04.835Z,80.40
2018-03-28T06:02:32.367Z,80.40
2018-03-28T06:04:59.894Z,79.20
2018-03-28T06:07:27.476Z,80.40
2018-03-28T06:09:55.758Z,79.70
2018-03-28T06:12:24.081Z,79.40
2018-03-28T06:14:51.599Z,79.50
2018-03-28T06:17:21.151Z,77.80
2018-03-28T06:19:49.421Z,76.80
2018-03-28T06:22:17.061Z,77.70
2018-03-28T06:24:46.602Z,77.60
2018-03-28T06:27:14.138Z,76.00
2018-03-28T06:29:41.762Z,75.80
2018-03-28T06:32:10.532Z,75.10
2018-03-28T06:34:38.529Z,76.00
2018-03-28T06:37:07.030Z,74.40
2018-03-28T06:39:34.559Z,75.00
2018-03-28T06:42:02.888Z,74.20
2018-03-28T06:44:30.415Z,74.10
2018-03-28T06:46:57.966Z,73.00
2018-03-28T06:49:25.518Z,73.20
2018-03-28T06:51:53.067Z,72.90
2018-03-28T06:54:20.586Z,72.90
2018-03-28T06:56:48.126Z,73.70
2018-03-28T06:59:15.701Z,72.40
2018-03-28T07:01:43.242Z,71.80
2018-03-28T07:04:10.790Z,72.00
2018-03-28T07:06:38.322Z,72.30
2018-03-28T07:09:05.886Z,71.50
2018-03-28T07:11:33.437Z,72.40
2018-03-28T07:14:01.729Z,72.40
2018-03-28T07:16:29.282Z,72.40
2018-03-28T07:18:56.806Z,72.10
2018-03-28T07:21:24.374Z,71.60
2018-03-28T07:23:51.914Z,72.50
2018-03-28T07:26:19.466Z,71.40
2018-03-28T07:28:46.998Z,71.60
2018-03-28T07:31:15.399Z,73.20
2018-03-28T07:33:42.954Z,73.20
2018-03-28T07:36:10.478Z,73.30
2018-03-28T07:38:39.970Z,73.90
2018-03-28T07:41:08.499Z,72.90
2018-03-28T07:43:36.050Z,73.10
2018-03-28T07:46:04.537Z,72.20
2018-03-28T07:48:32.099Z,72.40
2018-03-28T07:51:00.582Z,71.90
2018-03-28T07:53:28.115Z,72.60
2018-03-28T07:55:55.712Z,71.50
2018-03-28T07:58:23.254Z,71.70
2018-03-28T08:00:52.741Z,71.10
2018-03-28T08:03:20.270Z,72.30
2018-03-28T08:05:49.599Z,69.70
2018-03-28T08:08:17.125Z,69.70
2018-03-28T08:10:45.426Z,71.40
2018-03-28T08:13:12.977Z,71.30
2018-03-28T08:15:40.507Z,70.60
2018-03-28T08:18:08.064Z,68.40
2018-03-28T08:20:35.587Z,70.30
2018-03-28T08:23:03.127Z,69.80
2018-03-28T08:25:30.654Z,68.90
2018-03-28T08:27:58.946Z,67.00
2018-03-28T08:30:26.514Z,67.00
2018-03-28T08:32:54.099Z,68.00
2018-03-28T08:35:21.632Z,69.30
2018-03-28T08:37:49.163Z,67.90
2018-03-28T08:40:16.723Z,68.00
2018-03-28T08:42:44.239Z,68.60
2018-03-28T08:45:11.776Z,67.60
2018-03-28T08:47:39.334Z,68.80
2018-03-28T08:50:06.876Z,70.30
2018-03-28T08:52:34.440Z,69.50
2018-03-28T08:55:01.953Z,69.10
2018-03-28T08:57:29.502Z,69.90
2018-03-28T08:59:57.206Z,71.00
2018-03-28T09:02:24.942Z,71.20
2018-03-28T09:04:52.491Z,72.10
2018-03-28T09:07:21.718Z,71.80
2018-03-28T09:09:49.264Z,71.80
2018-03-28T09:12:16.806Z,72.80
2018-03-28T09:14:44.364Z,74.00
2018-03-28T09:17:12.650Z,74.90
2018-03-28T09:19:42.155Z,74.20
2018-03-28T09:22:10.642Z,74.70
2018-03-28T09:24:38.158Z,75.30
2018-03-28T09:27:05.710Z,75.80
2018-03-28T09:29:33.225Z,77.00
2018-03-28T09:32:02.456Z,78.20
2018-03-28T09:34:29.983Z,78.20
2018-03-28T09:36:58.304Z,76.80
2018-03-28T09:39:25.848Z,76.80
2018-03-28T09:41:53.364Z,75.70
2018-03-28T09:44:21.856Z,74.50
2018-03-28T09:46:49.386Z,74.20
2018-03-28T09:49:16.940Z,72.70
2018-03-28T09:51:44.468Z,72.70
2018-03-28T09:54:12.013Z,71.60
2018-03-28T09:56:40.458Z,70.10
2018-03-28T09:59:07.986Z,68.60
2018-03-28T10:01:35.538Z,69.20
2018-03-28T10:04:08.729Z,69.00
2018-03-28T10:06:36.291Z,68.40
2018-03-28T10:09:03.806Z,69.40
2018-03-28T10:11:31.384Z,70.70
2018-03-28T10:13:59.928Z,71.00
2018-03-28T10:16:27.481Z,70.90
2018-03-28T10:18:55.014Z,70.70
2018-03-28T10:21:22.539Z,72.40
2018-03-28T10:23:50.093Z,71.50
2018-03-28T10:26:17.629Z,69.90
2018-03-28T10:28:45.944Z,70.70
2018-03-28T10:31:13.471Z,70.70
2018-03-28T10:33:41.786Z,69.80
2018-03-28T10:36:09.327Z,69.80
2018-03-28T10:38:36.872Z,68.80
2018-03-28T10:41:05.159Z,67.70
2018-03-28T10:43:32.742Z,67.70
2018-03-28T10:46:00.359Z,68.90
2018-03-28T10:48:29.802Z,66.30
2018-03-28T10:50:57.564Z,66.10
2018-03-28T10:53:25.081Z,65.30
2018-03-28T10:55:52.647Z,65.70
2018-03-28T10:58:20.954Z,63.50
2018-03-28T11:00:48.510Z,63.40
2018-03-28T11:03:16.040Z,63.50
2018-03-28T11:05:43.578Z,63.30
2018-03-28T11:08:12.082Z,63.40
2018-03-28T11:10:39.621Z,63.30
2018-03-28T11:13:07.181Z,63.10
2018-03-28T11:15:34.703Z,65.30
2018-03-28T11:18:02.246Z,65.50
2018-03-28T11:20:29.790Z,66.30
2018-03-28T11:22:57.353Z,65.60
2018-03-28T11:25:24.883Z,66.70
2018-03-28T11:27:52.435Z,67.50
2018-03-28T11:30:19.960Z,66.10
2018-03-28T11:32:47.488Z,68.50
2018-03-28T11:35:15.037Z,69.30
2018-03-28T11:37:42.566Z,70.60
2018-03-28T11:40:10.119Z,71.30
2018-03-28T11:42:37.643Z,71.50
2018-03-28T11:45:06.906Z,72.60
2018-03-28T11:47:35.213Z,72.10
2018-03-28T11:50:02.759Z,72.10
2018-03-28T11:52:30.294Z,74.70
2018-03-28T11:54:58.779Z,73.40
2018-03-28T11:57:28.304Z,74.30
2018-03-28T11:59:56.790Z,74.90
2018-03-28T12:02:24.482Z,74.70
2018-03-28T12:04:52.006Z,77.60
2018-03-28T12:07:19.574Z,77.30
2018-03-28T12:09:47.102Z,78.80
2018-03-28T12:12:15.420Z,78.60
2018-03-28T12:14:42.945Z,78.60
2018-03-28T12:17:10.480Z,79.30
2018-03-28T12:19:38.022Z,80.60
2018-03-28T12:22:06.358Z,79.30
2018-03-28T12:24:33.912Z,79.20
2018-03-28T12:27:01.443Z,79.70
2018-03-28T12:29:29.037Z,80.80
2018-03-28T12:31:56.557Z,82.20
2018-03-28T12:34:24.119Z,81.30
2018-03-28T12:36:51.717Z,82.90
2018-03-28T12:39:20.005Z,80.40
2018-03-28T12:41:47.538Z,80.40
2018-03-28T12:44:15.055Z,81.20
2018-03-28T12:46:43.611Z,82.10
2018-03-28T12:49:11.128Z,81.10
2018-03-28T12:51:38.736Z,84.40
2018-03-28T12:54:06.472Z,84.50
2018-03-28T12:56:34.510Z,83.30
2018-03-28T12:59:02.902Z,83.00
2018-03-28T13:01:30.479Z,82.90
2018-03-28T13:03:58.008Z,82.90
2018-03-28T13:06:25.528Z,84.70
2018-03-28T13:08:53.078Z,87.10
2018-03-28T13:11:20.593Z,86.30
2018-03-28T13:13:48.195Z,86.40
2018-03-28T13:16:15.738Z,83.10
2018-03-28T13:18:44.280Z,83.20
2018-03-28T13:21:11.802Z,81.70
2018-03-28T13:23:39.402Z,82.70
2018-03-28T13:26:07.678Z,88.20
2018-03-28T13:28:35.206Z,87.90
2018-03-28T13:31:02.752Z,91.80
2018-03-28T13:33:31.254Z,90.90
2018-03-28T13:35:59.558Z,90.10
2018-03-28T13:38:27.066Z,90.00
2018-03-28T13:40:54.632Z,88.80
2018-03-28T13:43:22.159Z,90.00
2018-03-28T13:45:49.724Z,87.40
2018-03-28T13:48:17.251Z,85.70
2018-03-28T13:50:45.536Z,85.90
2018-03-28T13:53:13.090Z,85.70
2018-03-28T13:55:40.617Z,90.10
2018-03-28T13:58:08.178Z,88.50
2018-03-28T14:00:35.698Z,91.00
2018-03-28T14:03:03.246Z,89.80
2018-03-28T14:05:30.770Z,90.20
2018-03-28T14:07:59.071Z,89.20
2018-03-28T14:10:26.592Z,89.00
2018-03-28T14:12:58.130Z,91.10
2018-03-28T14:15:25.650Z,91.30
2018-03-28T14:17:53.165Z,92.00
2018-03-28T14:20:21.482Z,90.90
2018-03-28T14:22:49.018Z,90.80
2018-03-28T14:25:16.566Z,90.40
2018-03-28T14:27:44.855Z,91.00
2018-03-28T14:30:13.359Z,91.10
2018-03-28T14:32:40.874Z,93.30
2018-03-28T14:35:08.426Z,94.20
2018-03-28T14:37:35.967Z,92.90
2018-03-28T14:40:03.555Z,93.90
2018-03-28T14:42:31.867Z,96.30
2018-03-28T14:44:59.412Z,96.30
2018-03-28T14:47:26.964Z,95.30
2018-03-28T14:49:54.482Z,94.30
2018-03-28T14:52:22.074Z,93.80
2018-03-28T14:54:49.599Z,93.70
2018-03-28T14:57:19.102Z,94.10
2018-03-28T14:59:46.620Z,94.20
2018-03-28T15:02:14.162Z,93.10
2018-03-28T15:04:42.630Z,94.70
2018-03-28T15:07:10.955Z,94.70
2018-03-28T15:09:39.462Z,94.40
2018-03-28T15:12:07.909Z,94.00
2018-03-28T15:14:35.465Z,95.40
2018-03-28T15:17:02.997Z,94.10
2018-03-28T15:19:30.547Z,93.80
2018-03-28T15:21:58.070Z,92.70
2018-03-28T15:24:25.662Z,93.90
2018-03-28T15:26:53.945Z,91.90
2018-03-28T15:29:21.494Z,91.80
2018-03-28T15:31:49.774Z,93.20
2018-03-28T15:34:18.058Z,93.60
2018-03-28T15:36:46.383Z,93.90
2018-03-28T15:39:13.919Z,93.90
2018-03-28T15:41:41.474Z,92.20
2018-03-28T15:44:09.022Z,90.90
2018-03-28T15:46:36.572Z,90.60
2018-03-28T15:49:04.107Z,91.20
2018-03-28T15:51:32.648Z,90.60
2018-03-28T15:54:01.118Z,90.80
2018-03-28T15:56:28.673Z,90.10
2018-03-28T15:58:56.205Z,90.90
2018-03-28T16:01:24.491Z,90.20
2018-03-28T16:03:52.994Z,90.20
2018-03-28T16:06:20.523Z,91.30
2018-03-28T16:08:48.855Z,88.80
2018-03-28T16:11:16.409Z,89.00
2018-03-28T16:13:43.955Z,89.50
2018-03-28T16:16:12.530Z,91.30
2018-03-28T16:18:40.084Z,90.80
2018-03-28T16:21:07.599Z,89.30
2018-03-28T16:23:35.152Z,90.80
2018-03-28T16:26:04.430Z,90.20
2018-03-28T16:28:32.916Z,90.50
2018-03-28T16:31:00.467Z,89.50
2018-03-28T16:33:27.988Z,88.50
2018-03-28T16:35:55.534Z,87.90
2018-03-28T16:38:24.768Z,88.30
2018-03-28T16:40:52.375Z,88.40
2018-03-28T16:43:19.902Z,86.90
2018-03-28T16:45:47.446Z,87.80
2018-03-28T16:48:15.934Z,88.50
2018-03-28T16:50:43.488Z,86.50
2018-03-28T16:53:11.030Z,86.90
2018-03-28T16:55:38.590Z,85.80
2018-03-28T16:58:06.136Z,86.10
2018-03-28T17:00:33.658Z,89.20
2018-03-28T17:03:01.220Z,87.50
2018-03-28T17:05:28.742Z,85.50
2018-03-28T17:07:57.077Z,86.80
2018-03-28T17:10:24.870Z,86.10
2018-03-28T17:12:52.411Z,86.60
2018-03-28T17:15:19.930Z,86.50
2018-03-28T17:17:47.483Z,87.80
2018-03-28T17:20:15.017Z,86.40
2018-03-28T17:22:42.555Z,90.20
2018-03-28T17:25:10.843Z,90.70
2018-03-28T17:27:38.358Z,90.70
2018-03-28T17:30:07.435Z,90.50
2018-03-28T17:32:34.960Z,90.80
2018-03-28T17:35:02.528Z,90.70
2018-03-28T17:37:30.052Z,92.70
2018-03-28T17:39:57.621Z,91.70
2018-03-28T17:42:25.945Z,91.40
2018-03-28T17:44:53.520Z,91.30
2018-03-28T17:47:21.873Z,96.00
2018-03-28T17:49:49.423Z,95.90
2018-03-28T17:52:16.966Z,96.50
2018-03-28T17:54:44.486Z,96.70
2018-03-28T17:57:13.917Z,98.10
2018-03-28T17:59:41.439Z,98.00
2018-03-28T18:02:09.778Z,99.40
2018-03-28T18:04:37.323Z,99.40
2018-03-28T18:07:04.842Z,99.90
2018-03-28T18:09:33.151Z,99.40
2018-03-28T18:12:00.694Z,99.40
2018-03-28T18:14:28.266Z,99.90
2018-03-28T18:16:55.787Z,98.40
2018-03-28T18:19:26.085Z,99.30
2018-03-28T18:21:53.608Z,99.40
2018-03-28T18:24:21.154Z,99.60
2018-03-28T18:26:48.704Z,99.90
2018-03-28T18:29:17.247Z,99.20
2018-03-28T18:31:46.080Z,98.20
2018-03-28T18:34:14.567Z,98.10
2018-03-28T18:36:42.109Z,98.50
2018-03-28T18:39:10.609Z,98.60
2018-03-28T18:41:38.171Z,98.60
2018-03-28T18:44:05.683Z,99.30
2018-03-28T18:46:33.272Z,98.40
2018-03-28T18:49:00.953Z,98.10
2018-03-28T18:51:28.620Z,99.30
2018-03-28T18:53:56.207Z,98.90
2018-03-28T18:56:23.761Z,98.90
2018-03-28T18:58:51.302Z,99.90
2018-03-28T19:01:18.845Z,97.20
2018-03-28T19:03:46.430Z,97.00
2018-03-28T19:06:14.926Z,97.90
2018-03-28T19:08:42.441Z,98.40
2018-03-28T19:11:10.053Z,96.50
2018-03-28T19:13:37.684Z,96.50
2018-03-28T19:16:07.226Z,96.30
2018-03-28T19:18:36.474Z,96.30
2018-03-28T19:21:04.055Z,96.40
2018-03-28T19:23:31.694Z,97.20
2018-03-28T19:25:59.559Z,94.70
2018-03-28T19:28:27.124Z,94.80
2018-03-28T19:30:54.646Z,94.60
2018-03-28T19:33:22.966Z,94.20
2018-03-28T19:35:50.511Z,94.10
2018-03-28T19:38:18.085Z,93.90
2018-03-28T19:40:46.371Z,94.70
2018-03-28T19:43:13.947Z,94.60
2018-03-28T19:45:41.468Z,94.20
2018-03-28T19:48:09.025Z,93.80
2018-03-28T19:50:38.528Z,93.90
2018-03-28T19:53:06.061Z,93.00
2018-03-28T19:55:33.853Z,92.90
2018-03-28T19:58:01.426Z,93.80
2018-03-28T20:00:28.989Z,92.40
2018-03-28T20:02:56.516Z,92.10
2018-03-28T20:05:25.123Z,91.60
2018-03-28T20:07:52.702Z,92.00
2018-03-28T20:10:20.436Z,91.10
2018-03-28T20:12:48.010Z,92.00
2018-03-28T20:15:15.543Z,91.50
2018-03-28T20:17:45.021Z,91.20
2018-03-28T20:20:13.326Z,91.90
2018-03-28T20:22:40.870Z,92.00
2018-03-28T20:25:09.182Z,91.80
2018-03-28T20:27:36.707Z,91.90
2018-03-28T20:30:04.370Z,92.30
2018-03-28T20:32:31.894Z,92.00
2018-03-28T20:34:59.465Z,92.50
2018-03-28T20:37:26.998Z,93.30
2018-03-28T20:39:54.523Z,92.60
2018-03-28T20:42:22.144Z,92.60
2018-03-28T20:44:50.451Z,93.50
2018-03-28T20:47:18.240Z,93.20
2018-03-28T20:49:45.829Z,92.70
2018-03-28T20:52:15.107Z,93.00
2018-03-28T20:54:42.647Z,93.10
2018-03-28T20:57:10.283Z,94.00
2018-03-28T20:59:37.860Z,94.20
2018-03-28T21:02:05.527Z,94.80
2018-03-28T21:04:33.107Z,97.90
2018-03-28T21:07:01.021Z,98.40
2018-03-28T21:09:28.716Z,98.30
2018-03-28T21:11:56.247Z,98.80
2018-03-28T21:14:24.100Z,97.90
2018-03-28T21:16:52.410Z,96.80
2018-03-28T21:19:19.994Z,96.80
2018-03-28T21:21:47.525Z,97.70
2018-03-28T21:24:15.106Z,96.10
2018-03-28T21:26:42.647Z,97.00
2018-03-28T21:29:10.174Z,96.30
2018-03-28T21:31:38.502Z,99.50
2018-03-28T21:34:06.035Z,99.50
2018-03-28T21:36:34.549Z,99.90
2018-03-28T21:39:02.093Z,99.90
2018-03-28T21:41:29.858Z,99.50
2018-03-28T21:43:57.398Z,99.90
2018-03-28T21:46:24.946Z,99.90
2018-03-28T21:48:52.490Z,99.90
2018-03-28T21:51:20.017Z,99.90
2018-03-28T21:53:47.557Z,99.90
2018-03-28T21:56:15.078Z,99.90
2018-03-28T21:58:43.407Z,99.90
2018-03-28T22:01:11.103Z,99.90
2018-03-28T22:03:39.427Z,99.90
2018-03-28T22:06:06.963Z,99.90
2018-03-28T22:08:34.504Z,99.90
2018-03-28T22:11:02.787Z,99.90
2018-03-28T22:13:32.066Z,99.90
2018-03-28T22:15:59.589Z,99.90
2018-03-28T22:18:27.111Z,99.90
2018-03-28T22:20:54.654Z,99.90
2018-03-28T22:23:22.185Z,99.90
2018-03-28T22:25:49.732Z,99.90
2018-03-28T22:28:17.252Z,99.90
2018-03-28T22:30:44.794Z,99.90
2018-03-28T22:33:12.316Z,99.90
2018-03-28T22:35:39.858Z,99.90
2018-03-28T22:38:07.402Z,99.90
2018-03-28T22:40:34.950Z,99.90
2018-03-28T22:43:02.478Z,99.90
2018-03-28T22:45:29.999Z,99.90
2018-03-28T22:47:57.548Z,99.90
2018-03-28T22:50:25.078Z,98.60
2018-03-28T22:52:52.626Z,99.90
2018-03-28T22:55:20.906Z,99.90
2018-03-28T22:57:48.469Z,99.90
2018-03-28T23:00:16.001Z,99.90
2018-03-28T23:02:43.551Z,99.90
2018-03-28T23:05:11.832Z,99.90
2018-03-28T23:07:39.371Z,99.90
2018-03-28T23:10:06.921Z,99.90
2018-03-28T23:12:34.456Z,99.50
2018-03-28T23:15:01.999Z,98.40
2018-03-28T23:17:29.531Z,98.60
2018-03-28T23:19:57.078Z,99.30
2018-03-28T23:22:35.546Z,98.20
2018-03-28T23:25:03.097Z,98.50
2018-03-28T23:27:30.792Z,98.10
2018-03-28T23:29:58.307Z,98.30
2018-03-28T23:32:25.861Z,94.80
2018-03-28T23:34:53.385Z,95.80
2018-03-28T23:37:20.944Z,93.50
2018-03-28T23:39:48.473Z,96.30
2018-03-28T23:42:16.082Z,96.10
2018-03-28T23:44:43.562Z,97.30
2018-03-28T23:47:11.223Z,96.50
2018-03-28T23:49:38.798Z,93.90
2018-03-28T23:52:06.431Z,95.70
2018-03-28T23:54:34.760Z,97.00
2018-03-28T23:57:02.335Z,97.00
2018-03-28T23:59:29.894Z,99.10
